createdAt,value
2019-01-15T00:02:26.941Z,99865.52
2019-01-15T00:04:59.696Z,99873.59
2019-01-15T00:07:32.345Z,99868.06
2019-01-15T00:10:05.927Z,99871.94
2019-01-15T00:12:38.626Z,99874.41
2019-01-15T00:15:11.487Z,99878.83
2019-01-15T00:17:44.311Z,99880.98
2019-01-15T00:20:16.992Z,99887.00
2019-01-15T00:22:49.688Z,99885.84
2019-01-15T00:25:22.471Z,99874.78
2019-01-15T00:27:55.207Z,99874.16
2019-01-15T00:30:27.950Z,99870.90
2019-01-15T00:33:00.730Z,99871.92
2019-01-15T00:35:33.409Z,99866.39
2019-01-15T00:38:06.058Z,99875.12
2019-01-15T00:40:38.746Z,99874.80
2019-01-15T00:43:11.402Z,99872.88
2019-01-15T00:45:44.168Z,99874.66
2019-01-15T00:48:16.797Z,99880.89
2019-01-15T00:50:49.546Z,99884.16
2019-01-15T00:53:22.197Z,99889.16
2019-01-15T00:55:54.870Z,99895.03
2019-01-15T00:58:27.497Z,99895.17
2019-01-15T01:01:00.265Z,99898.69
2019-01-15T01:03:33.080Z,99903.97
2019-01-15T01:06:05.774Z,99905.09
2019-01-15T01:08:39.476Z,99910.26
2019-01-15T01:11:12.158Z,99915.49
2019-01-15T01:13:44.887Z,99921.73
2019-01-15T01:16:17.578Z,99929.92
2019-01-15T01:18:50.220Z,99926.25
2019-01-15T01:21:22.919Z,99928.80
2019-01-15T01:23:55.561Z,99924.44
2019-01-15T01:26:28.291Z,99924.58
2019-01-15T01:29:00.896Z,99921.97
2019-01-15T01:31:33.635Z,99922.86
2019-01-15T01:34:06.273Z,99917.70
2019-01-15T01:36:38.963Z,99920.48
2019-01-15T01:39:11.581Z,99921.20
2019-01-15T01:41:44.280Z,99923.33
2019-01-15T01:44:16.944Z,99923.42
2019-01-15T01:46:49.604Z,99923.31
2019-01-15T01:49:22.318Z,99925.87
2019-01-15T01:51:54.999Z,99929.45
2019-01-15T01:54:27.758Z,99927.13
2019-01-15T01:57:00.393Z,99931.31
2019-01-15T01:59:33.015Z,99931.78
2019-01-15T02:02:05.756Z,99920.47
2019-01-15T02:04:38.430Z,99920.63
2019-01-15T02:07:11.204Z,99910.14
2019-01-15T02:09:43.875Z,99909.59
2019-01-15T02:12:16.511Z,99907.39
2019-01-15T02:14:49.149Z,99912.23
2019-01-15T02:17:21.766Z,99908.33
2019-01-15T02:19:54.387Z,99914.53
2019-01-15T02:22:27.028Z,99923.08
2019-01-15T02:24:59.797Z,99928.08
2019-01-15T02:27:32.886Z,99930.83
2019-01-15T02:30:06.436Z,99928.80
2019-01-15T02:32:39.167Z,99930.63
2019-01-15T02:35:13.270Z,99939.27
2019-01-15T02:37:46.029Z,99940.94
2019-01-15T02:40:18.638Z,99940.09
2019-01-15T02:42:51.284Z,99945.16
2019-01-15T02:45:24.105Z,99940.68
2019-01-15T02:47:56.781Z,99942.05
2019-01-15T02:50:29.409Z,99945.59
2019-01-15T02:53:02.041Z,99934.58
2019-01-15T02:55:34.746Z,99932.27
2019-01-15T02:58:07.404Z,99936.73
2019-01-15T03:00:40.009Z,99939.25
2019-01-15T03:03:12.690Z,99938.69
2019-01-15T03:05:45.411Z,99937.94
2019-01-15T03:08:18.137Z,99938.69
2019-01-15T03:10:50.752Z,99939.83
2019-01-15T03:13:23.479Z,99940.22
2019-01-15T03:15:56.114Z,99938.72
2019-01-15T03:18:28.775Z,99940.91
2019-01-15T03:21:01.395Z,99937.25
2019-01-15T03:23:34.091Z,99938.22
2019-01-15T03:26:06.723Z,99941.55
2019-01-15T03:28:39.343Z,99932.81
2019-01-15T03:31:12.051Z,99941.73
2019-01-15T03:33:44.701Z,99949.47
2019-01-15T03:36:17.460Z,99935.77
2019-01-15T03:38:50.213Z,99934.89
2019-01-15T03:41:22.856Z,99939.98
2019-01-15T03:43:55.505Z,99939.59
2019-01-15T03:46:28.122Z,99935.13
2019-01-15T03:49:00.749Z,99929.83
2019-01-15T03:51:33.360Z,99922.53
2019-01-15T03:54:06.028Z,99922.77
2019-01-15T03:56:38.796Z,99916.27
2019-01-15T03:59:11.352Z,99919.53
2019-01-15T04:01:43.971Z,99913.41
2019-01-15T04:04:17.549Z,99909.61
2019-01-15T04:06:50.177Z,99908.28
2019-01-15T04:09:23.961Z,99910.58
2019-01-15T04:11:56.784Z,99907.70
2019-01-15T04:14:29.493Z,99914.70
2019-01-15T04:17:02.131Z,99919.17
2019-01-15T04:19:34.784Z,99922.02
2019-01-15T04:22:07.416Z,99928.05
2019-01-15T04:24:40.016Z,99931.23
2019-01-15T04:27:12.669Z,99932.37
2019-01-15T04:29:45.246Z,99935.69
2019-01-15T04:32:17.876Z,99940.28
2019-01-15T04:34:50.584Z,99944.30
2019-01-15T04:37:23.195Z,99940.73
2019-01-15T04:39:55.791Z,99936.92
2019-01-15T04:42:28.516Z,99932.55
2019-01-15T04:45:01.111Z,99927.42
2019-01-15T04:47:33.807Z,99922.59
2019-01-15T04:50:07.254Z,99898.47
2019-01-15T04:52:41.445Z,99897.69
2019-01-15T04:55:14.233Z,99892.52
2019-01-15T04:57:46.858Z,99894.95
2019-01-15T05:00:19.966Z,99890.98
2019-01-15T05:02:53.422Z,99897.88
2019-01-15T05:05:26.059Z,99904.55
2019-01-15T05:07:58.732Z,99900.70
2019-01-15T05:10:31.326Z,99899.93
2019-01-15T05:13:03.984Z,99901.67
2019-01-15T05:15:36.603Z,99900.64
2019-01-15T05:18:09.264Z,99911.59
2019-01-15T05:20:41.876Z,99909.73
2019-01-15T05:23:14.537Z,99916.11
2019-01-15T05:25:47.120Z,99920.10
2019-01-15T05:28:19.751Z,99917.77
2019-01-15T05:30:52.432Z,99918.88
2019-01-15T05:33:25.085Z,99914.68
2019-01-15T05:35:57.686Z,99915.92
2019-01-15T05:38:30.309Z,99916.23
2019-01-15T05:41:02.900Z,99911.66
2019-01-15T05:43:36.074Z,99912.87
2019-01-15T05:46:08.811Z,99916.77
2019-01-15T05:48:41.410Z,99916.72
2019-01-15T05:51:29.632Z,99917.63
2019-01-15T05:54:02.329Z,99915.03
2019-01-15T05:56:34.937Z,99916.37
2019-01-15T05:59:07.557Z,99918.30
2019-01-15T06:01:41.201Z,99922.58
2019-01-15T06:04:13.809Z,99918.36
2019-01-15T06:06:46.406Z,99913.47
2019-01-15T06:09:19.028Z,99913.31
2019-01-15T06:11:51.759Z,99911.81
2019-01-15T06:14:24.382Z,99906.97
2019-01-15T06:16:56.966Z,99906.73
2019-01-15T06:19:29.583Z,99900.47
2019-01-15T06:22:02.173Z,99904.59
2019-01-15T06:24:34.821Z,99906.74
2019-01-15T06:27:07.421Z,99902.23
2019-01-15T06:29:40.023Z,99900.31
2019-01-15T06:32:12.748Z,99904.44
2019-01-15T06:34:45.447Z,99903.01
2019-01-15T06:37:18.016Z,99904.52
2019-01-15T06:39:50.624Z,99913.16
2019-01-15T06:42:23.299Z,99906.59
2019-01-15T06:44:57.000Z,99901.66
2019-01-15T06:47:29.582Z,99905.94
2019-01-15T06:50:02.215Z,99902.20
2019-01-15T06:52:35.875Z,99908.59
2019-01-15T06:55:11.265Z,99910.24
2019-01-15T06:57:43.871Z,99910.88
2019-01-15T07:00:22.798Z,99900.41
2019-01-15T07:02:55.367Z,99906.98
2019-01-15T07:05:28.231Z,99904.94
2019-01-15T07:08:00.787Z,99906.91
2019-01-15T07:10:38.980Z,99903.98
2019-01-15T07:13:11.577Z,99911.27
2019-01-15T07:15:44.185Z,99906.46
2019-01-15T07:18:16.810Z,99912.70
2019-01-15T07:20:49.465Z,99915.79
2019-01-15T07:23:22.056Z,99924.53
2019-01-15T07:25:54.690Z,99924.83
2019-01-15T07:28:27.264Z,99932.36
2019-01-15T07:31:01.348Z,99931.95
2019-01-15T07:33:33.974Z,99941.30
2019-01-15T07:36:06.596Z,99938.77
2019-01-15T07:38:40.311Z,99936.72
2019-01-15T07:41:13.102Z,99940.03
2019-01-15T07:43:45.864Z,99936.07
2019-01-15T07:46:18.564Z,99939.36
2019-01-15T07:48:51.188Z,99933.48
2019-01-15T07:51:25.150Z,99934.44
2019-01-15T07:53:57.771Z,99942.11
2019-01-15T07:56:30.417Z,99942.84
2019-01-15T07:59:03.164Z,99944.43
2019-01-15T08:01:35.921Z,99942.90
2019-01-15T08:04:08.554Z,99952.35
2019-01-15T08:06:41.200Z,99965.25
2019-01-15T08:09:13.862Z,99966.52
2019-01-15T08:11:46.603Z,99969.17
2019-01-15T08:14:19.237Z,99962.51
2019-01-15T08:16:51.861Z,99957.43
2019-01-15T08:19:24.589Z,99956.44
2019-01-15T08:21:57.279Z,99954.22
2019-01-15T08:24:29.955Z,99947.80
2019-01-15T08:27:02.746Z,99953.16
2019-01-15T08:29:35.399Z,99952.86
2019-01-15T08:32:08.043Z,99951.92
2019-01-15T08:34:40.627Z,99960.15
2019-01-15T08:37:13.242Z,99956.00
2019-01-15T08:39:45.923Z,99957.78
2019-01-15T08:42:18.550Z,99949.23
2019-01-15T08:44:51.503Z,99939.55
2019-01-15T08:47:24.517Z,99935.34
2019-01-15T08:49:57.182Z,99933.20
2019-01-15T08:52:29.804Z,99925.20
2019-01-15T08:55:02.480Z,99921.96
2019-01-15T08:57:35.208Z,99926.03
2019-01-15T09:00:09.029Z,99924.03
2019-01-15T09:02:41.627Z,99934.45
2019-01-15T09:05:14.312Z,99942.80
2019-01-15T09:07:47.027Z,99936.30
2019-01-15T09:10:19.816Z,99931.47
2019-01-15T09:12:52.511Z,99936.09
2019-01-15T09:15:25.245Z,99937.62
2019-01-15T09:17:57.936Z,99936.83
2019-01-15T09:20:30.578Z,99946.52
2019-01-15T09:23:03.210Z,99949.31
2019-01-15T09:25:35.848Z,99949.62
2019-01-15T09:28:08.661Z,99952.09
2019-01-15T09:30:41.307Z,99946.47
2019-01-15T09:33:14.063Z,99953.56
2019-01-15T09:35:46.715Z,99951.66
2019-01-15T09:38:19.500Z,99945.36
2019-01-15T09:40:52.222Z,99946.65
2019-01-15T09:43:24.858Z,99945.70
2019-01-15T09:45:57.493Z,99949.59
2019-01-15T09:48:33.864Z,99940.53
2019-01-15T09:51:06.593Z,99934.13
2019-01-15T09:53:39.219Z,99938.47
2019-01-15T09:56:11.874Z,99936.51
2019-01-15T09:58:44.614Z,99924.02
2019-01-15T10:01:17.293Z,99926.89
2019-01-15T10:03:49.906Z,99924.17
2019-01-15T10:06:22.648Z,99928.94
2019-01-15T10:08:55.374Z,99930.59
2019-01-15T10:11:28.016Z,99915.39
2019-01-15T10:14:00.624Z,99917.27
2019-01-15T10:16:33.300Z,99914.82
2019-01-15T10:19:06.005Z,99920.67
2019-01-15T10:21:39.859Z,99920.81
2019-01-15T10:24:12.644Z,99906.56
2019-01-15T10:26:46.253Z,99901.95
2019-01-15T10:29:20.391Z,99906.72
2019-01-15T10:33:03.769Z,99904.78
2019-01-15T10:36:03.667Z,99901.76
2019-01-15T10:38:36.305Z,99899.96
2019-01-15T10:41:08.992Z,99896.38
2019-01-15T10:43:41.706Z,99900.13
2019-01-15T10:46:14.476Z,99905.20
2019-01-15T10:48:47.190Z,99900.35
2019-01-15T10:51:19.932Z,99895.02
2019-01-15T10:53:52.731Z,99898.12
2019-01-15T10:56:25.540Z,99890.59
2019-01-15T10:58:58.348Z,99885.53
2019-01-15T11:01:31.103Z,99878.83
2019-01-15T11:04:03.839Z,99866.33
2019-01-15T11:06:36.527Z,99865.98
2019-01-15T11:09:10.202Z,99870.11
2019-01-15T11:11:42.956Z,99871.95
2019-01-15T11:14:17.882Z,99864.50
2019-01-15T11:16:50.558Z,99861.38
2019-01-15T11:19:23.258Z,99853.06
2019-01-15T11:21:55.996Z,99852.77
2019-01-15T11:24:28.717Z,99851.81
2019-01-15T11:27:01.463Z,99845.46
2019-01-15T11:29:34.189Z,99848.05
2019-01-15T11:32:06.931Z,99840.78
2019-01-15T11:34:39.645Z,99846.70
2019-01-15T11:37:12.374Z,99842.59
2019-01-15T11:39:45.193Z,99837.04
2019-01-15T11:42:19.012Z,99835.11
2019-01-15T11:44:51.661Z,99835.47
2019-01-15T11:47:24.338Z,99833.47
2019-01-15T11:49:56.976Z,99832.60
2019-01-15T11:52:29.630Z,99825.73
2019-01-15T11:55:02.264Z,99824.91
2019-01-15T11:57:35.025Z,99819.08
2019-01-15T12:00:14.532Z,99819.00
2019-01-15T12:02:56.158Z,99819.48
2019-01-15T12:05:46.551Z,99813.66
2019-01-15T12:08:36.572Z,99803.42
2019-01-15T12:11:30.977Z,99801.93
2019-01-15T12:14:21.256Z,99800.19
2019-01-15T12:17:06.903Z,99794.63
2019-01-15T12:19:57.399Z,99792.80
2019-01-15T12:22:51.983Z,99789.37
2019-01-15T12:25:58.672Z,99788.50
2019-01-15T12:28:47.255Z,99785.79
2019-01-15T12:31:44.829Z,99784.19
2019-01-15T12:34:35.191Z,99775.25
2019-01-15T12:37:29.547Z,99783.16
2019-01-15T12:40:23.176Z,99779.27
2019-01-15T12:43:10.893Z,99783.02
2019-01-15T12:46:08.223Z,99778.97
2019-01-15T12:49:18.106Z,99767.17
2019-01-15T12:52:24.902Z,99775.52
2019-01-15T12:55:16.028Z,99772.54
2019-01-15T12:58:07.531Z,99777.06
2019-01-15T13:01:11.233Z,99772.82
2019-01-15T13:04:01.678Z,99768.31
2019-01-15T13:06:51.825Z,99770.28
2019-01-15T13:09:41.983Z,99770.69
2019-01-15T13:12:34.039Z,99764.93
2019-01-15T13:15:39.805Z,99766.31
2019-01-15T13:18:34.331Z,99768.59
2019-01-15T13:21:31.979Z,99769.09
2019-01-15T13:24:42.590Z,99762.81
2019-01-15T13:27:45.703Z,99767.31
2019-01-15T13:30:37.353Z,99772.08
2019-01-15T13:33:36.947Z,99769.70
2019-01-15T13:36:28.155Z,99768.36
2019-01-15T13:39:29.087Z,99756.84
2019-01-15T13:42:19.368Z,99757.73
2019-01-15T13:45:23.173Z,99758.70
2019-01-15T13:48:14.666Z,99759.33
2019-01-15T13:50:57.676Z,99762.49
2019-01-15T13:53:47.903Z,99768.07
2019-01-15T13:56:51.745Z,99755.44
2019-01-15T13:59:42.140Z,99753.79
2019-01-15T14:02:28.592Z,99752.81
2019-01-15T14:05:18.986Z,99751.79
2019-01-15T14:08:09.260Z,99747.16
2019-01-15T14:10:51.480Z,99743.53
2019-01-15T14:13:50.871Z,99746.53
2019-01-15T14:16:51.434Z,99743.13
2019-01-15T14:19:46.000Z,99741.16
2019-01-15T14:22:55.613Z,99743.50
2019-01-15T14:25:59.296Z,99735.57
2019-01-15T14:28:50.807Z,99732.95
2019-01-15T14:31:41.262Z,99728.45
2019-01-15T14:34:31.654Z,99727.70
2019-01-15T14:37:28.993Z,99728.77
2019-01-15T14:40:19.530Z,99730.99
2019-01-15T14:43:21.893Z,99730.50
2019-01-15T14:46:31.791Z,99732.18
2019-01-15T14:49:32.497Z,99727.78
2019-01-15T14:52:39.424Z,99723.84
2019-01-15T14:55:23.812Z,99720.66
2019-01-15T14:58:14.230Z,99718.41
2019-01-15T15:01:08.533Z,99722.41
2019-01-15T15:03:54.822Z,99717.53
2019-01-15T15:06:39.301Z,99709.91
2019-01-15T15:09:48.964Z,99715.95
2019-01-15T15:12:33.889Z,99716.53
2019-01-15T15:15:41.031Z,99721.90
2019-01-15T15:18:29.937Z,99718.66
2019-01-15T15:21:22.200Z,99725.01
2019-01-15T15:24:14.336Z,99725.78
2019-01-15T15:27:14.822Z,99725.63
2019-01-15T15:30:06.320Z,99727.85
2019-01-15T15:33:03.760Z,99727.69
2019-01-15T15:35:55.289Z,99726.90
2019-01-15T15:38:50.085Z,99723.72
2019-01-15T15:41:40.129Z,99728.58
2019-01-15T15:44:40.638Z,99725.63
2019-01-15T15:47:35.166Z,99721.21
2019-01-15T15:50:33.567Z,99721.75
2019-01-15T15:53:26.936Z,99725.79
2019-01-15T15:56:33.768Z,99721.50
2019-01-15T15:59:25.210Z,99723.89
2019-01-15T16:02:16.755Z,99721.75
2019-01-15T16:05:14.377Z,99724.52
2019-01-15T16:08:04.411Z,99728.49
2019-01-15T16:10:54.861Z,99725.79
2019-01-15T16:13:45.305Z,99730.01
2019-01-15T16:16:35.412Z,99733.98
2019-01-15T16:19:25.830Z,99727.48
2019-01-15T16:22:14.444Z,99730.38
2019-01-15T16:24:55.930Z,99725.62
2019-01-15T16:27:46.929Z,99728.81
2019-01-15T16:30:42.259Z,99720.64
2019-01-15T16:33:49.205Z,99720.38
2019-01-15T16:36:39.342Z,99718.10
2019-01-15T16:39:31.005Z,99720.01
2019-01-15T16:42:21.354Z,99719.22
2019-01-15T16:45:31.091Z,99717.99
2019-01-15T16:48:28.417Z,99719.06
2019-01-15T16:51:22.713Z,99723.17
2019-01-15T16:54:13.156Z,99722.86
2019-01-15T16:57:10.522Z,99725.05
2019-01-15T17:00:13.564Z,99727.47
2019-01-15T17:03:17.246Z,99724.43
2019-01-15T17:06:17.808Z,99720.48
2019-01-15T17:09:24.310Z,99713.05
2019-01-15T17:12:28.178Z,99723.24
2019-01-15T17:15:29.078Z,99719.17
2019-01-15T17:18:19.548Z,99717.25
2019-01-15T17:21:19.997Z,99723.92
2019-01-15T17:24:14.466Z,99719.89
2019-01-15T17:27:04.819Z,99721.96
2019-01-15T17:29:55.040Z,99722.30
2019-01-15T17:32:37.357Z,99723.70
2019-01-15T17:35:28.931Z,99719.59
2019-01-15T17:38:32.606Z,99719.23
2019-01-15T17:41:15.204Z,99715.36
2019-01-15T17:44:06.778Z,99714.24
2019-01-15T17:47:04.589Z,99716.22
2019-01-15T17:49:55.029Z,99718.78
2019-01-15T17:52:43.755Z,99713.05
2019-01-15T17:55:33.882Z,99715.91
2019-01-15T17:58:22.941Z,99712.08
2019-01-15T18:01:14.473Z,99712.18
2019-01-15T18:04:11.812Z,99710.98
2019-01-15T18:07:00.678Z,99709.70
2019-01-15T18:10:04.092Z,99716.34
2019-01-15T18:12:53.055Z,99707.02
2019-01-15T18:15:47.384Z,99715.33
2019-01-15T18:18:38.024Z,99710.91
2019-01-15T18:21:36.064Z,99713.20
2019-01-15T18:24:26.493Z,99722.26
2019-01-15T18:27:30.044Z,99718.03
2019-01-15T18:30:27.663Z,99719.78
2019-01-15T18:33:23.532Z,99710.81
2019-01-15T18:36:15.116Z,99718.03
2019-01-15T18:39:13.380Z,99715.58
2019-01-15T18:42:13.987Z,99717.73
2019-01-15T18:45:11.541Z,99719.25
2019-01-15T18:48:12.426Z,99721.31
2019-01-15T18:51:13.088Z,99721.01
2019-01-15T18:54:02.020Z,99716.05
2019-01-15T18:56:52.314Z,99708.45
2019-01-15T18:59:50.144Z,99710.66
2019-01-15T19:02:47.681Z,99706.09
2019-01-15T19:05:45.499Z,99702.59
2019-01-15T19:08:52.165Z,99709.15
2019-01-15T19:11:42.552Z,99711.55
2019-01-15T19:14:34.161Z,99707.08
2019-01-15T19:17:31.641Z,99706.28
2019-01-15T19:20:22.829Z,99707.89
2019-01-15T19:23:22.187Z,99709.10
2019-01-15T19:26:28.911Z,99709.78
2019-01-15T19:29:20.299Z,99705.13
2019-01-15T19:32:14.693Z,99707.91
2019-01-15T19:35:11.958Z,99703.84
2019-01-15T19:37:56.201Z,99702.88
2019-01-15T19:40:48.843Z,99707.43
2019-01-15T19:43:46.299Z,99710.67
2019-01-15T19:46:36.598Z,99711.33
2019-01-15T19:49:40.617Z,99704.94
2019-01-15T19:52:35.299Z,99705.89
2019-01-15T19:55:39.325Z,99706.05
2019-01-15T19:58:46.384Z,99709.41
2019-01-15T20:01:36.818Z,99712.42
2019-01-15T20:04:28.463Z,99708.94
2019-01-15T20:07:25.862Z,99706.61
2019-01-15T20:10:14.751Z,99713.67
2019-01-15T20:13:09.314Z,99710.20
2019-01-15T20:16:09.903Z,99709.09
2019-01-15T20:19:09.209Z,99708.45
2019-01-15T20:21:58.763Z,99704.00
2019-01-15T20:24:49.211Z,99713.34
2019-01-15T20:27:39.530Z,99712.27
2019-01-15T20:30:30.609Z,99708.92
2019-01-15T20:33:35.019Z,99704.58
2019-01-15T20:36:32.750Z,99707.89
2019-01-15T20:39:23.184Z,99711.87
2019-01-15T20:42:27.073Z,99713.36
2019-01-15T20:45:14.412Z,99711.95
2019-01-15T20:48:06.054Z,99708.28
2019-01-15T20:51:03.545Z,99705.49
2019-01-15T20:54:00.173Z,99709.90
2019-01-15T20:56:50.635Z,99708.59
2019-01-15T20:59:48.044Z,99704.08
2019-01-15T21:02:31.116Z,99702.95
2019-01-15T21:05:15.432Z,99699.07
2019-01-15T21:08:07.078Z,99702.98
2019-01-15T21:10:57.482Z,99692.88
2019-01-15T21:14:07.469Z,99691.20
2019-01-15T21:16:52.525Z,99690.08
2019-01-15T21:20:02.168Z,99694.86
2019-01-15T21:22:53.832Z,99694.78
2019-01-15T21:25:54.655Z,99695.18
2019-01-15T21:28:52.254Z,99696.21
2019-01-15T21:31:53.140Z,99693.91
2019-01-15T21:34:43.606Z,99694.64
2019-01-15T21:37:42.128Z,99688.48
2019-01-15T21:40:39.563Z,99690.56
2019-01-15T21:43:29.798Z,99692.14
2019-01-15T21:46:21.123Z,99697.47
2019-01-15T21:49:11.300Z,99698.90
2019-01-15T21:52:02.910Z,99695.48
2019-01-15T21:54:54.590Z,99692.14
2019-01-15T21:57:58.272Z,99681.75
2019-01-15T22:00:43.265Z,99685.31
2019-01-15T22:03:34.860Z,99685.64
2019-01-15T22:06:30.265Z,99688.33
2019-01-15T22:09:20.775Z,99683.66
2019-01-15T22:12:12.397Z,99690.41
2019-01-15T22:15:13.027Z,99686.48
2019-01-15T22:18:04.624Z,99682.31
2019-01-15T22:20:55.010Z,99677.05
2019-01-15T22:23:45.342Z,99673.97
2019-01-15T22:26:40.047Z,99671.71
2019-01-15T22:29:30.468Z,99678.48
2019-01-15T22:32:20.771Z,99675.14
2019-01-15T22:35:18.527Z,99670.64
2019-01-15T22:38:08.962Z,99671.56
2019-01-15T22:41:10.216Z,99665.63
2019-01-15T22:43:51.314Z,99658.78
2019-01-15T22:46:42.964Z,99659.02
2019-01-15T22:49:37.430Z,99656.72
2019-01-15T22:52:34.375Z,99649.17
2019-01-15T22:55:26.454Z,99647.25
2019-01-15T22:58:12.304Z,99648.55
2019-01-15T23:01:04.681Z,99640.51
2019-01-15T23:03:56.696Z,99639.89
2019-01-15T23:06:50.165Z,99642.09
2019-01-15T23:09:48.438Z,99643.35
2019-01-15T23:12:28.292Z,99644.32
2019-01-15T23:15:31.973Z,99641.16
2019-01-15T23:18:33.123Z,99636.39
2019-01-15T23:21:23.418Z,99642.30
2019-01-15T23:24:20.794Z,99641.37
2019-01-15T23:27:15.486Z,99637.31
2019-01-15T23:30:05.992Z,99642.26
2019-01-15T23:33:00.808Z,99634.31
2019-01-15T23:35:55.159Z,99631.07
2019-01-15T23:38:55.606Z,99632.41
2019-01-15T23:41:55.543Z,99632.86
2019-01-15T23:44:45.930Z,99621.14
2019-01-15T23:47:43.599Z,99623.25
2019-01-15T23:50:47.515Z,99617.50
2019-01-15T23:53:38.224Z,99622.80
2019-01-15T23:56:38.901Z,99616.05
2019-01-15T23:59:33.583Z,99614.13
